Dallas, Texas
Traffic Map
Current Weather Conditions
Dallas, Texas
Few Clouds
Few Clouds
69°
Feels Like: 69°
Wind Chill: 69° Ceiling: Unl
Heat Index: 69° Visibility: 8mi
Dew Point: 59° Wind: 0mph
Humidity: 70% Direction: ° ()
Pressure: 30.12in Gusts: 0mph
Raw Report DataKDAL 211453Z 00000KT 8SM FEW300 21/15 A3012 RMK AO2 SLP195 T02060150 52016
Traffic Incident Summary
Active as of:
Severity:
Category:
InformationThere was an issue retrieving the traffic information for this location. Please try a different location or try again shortly.
Advertisements
Track Severe Weather on mobile